Time;durP1;ratioP1;P1;durP2;ratioP2;P2;SDS_P1;SDS_P2;PMS_P1;PMS_P2;Temp;Humidity;BMP_temperature;BMP_pressure;BME280_temperature;BME280_humidity;BME280_pressure;Samples;Min_cycle;Max_cycle;Signal;HPM_P1;HPM_P2
2023/11/12 00:02:02;;;;;;;0.80;0.80;;;;;;;;;;4896230;29;20031;-85
2023/11/12 00:04:28;;;;;;;0.82;0.70;;;;;;;;;;4895843;29;20033;-86
2023/11/12 00:06:54;;;;;;;6.57;1.38;;;;;;;;;;4895793;29;20055;-85
2023/11/12 00:09:20;;;;;;;0.50;0.50;;;;;;;;;;4896805;29;20029;-86
2023/11/12 00:11:46;;;;;;;2.10;1.17;;;;;;;;;;4896314;29;20081;-87
2023/11/12 00:14:12;;;;;;;1.05;0.98;;;;;;;;;;4896051;29;20561;-86
2023/11/12 00:16:39;;;;;;;2.28;1.23;;;;;;;;;;4896543;29;20045;-86
2023/11/12 00:19:05;;;;;;;0.90;0.90;;;;;;;;;;4896120;29;20485;-86
2023/11/12 00:21:31;;;;;;;2.90;0.98;;;;;;;;;;4895664;29;20052;-87
2023/11/12 00:23:58;;;;;;;8.10;2.25;;;;;;;;;;4894796;29;20362;-87
2023/11/12 00:26:24;;;;;;;1.60;1.23;;;;;;;;;;4886927;29;20033;-88
2023/11/12 00:28:50;;;;;;;0.80;0.80;;;8.00;79.80;;;;;;4892095;29;20024;-86
2023/11/12 00:31:16;;;;;;;2.60;1.25;;;;;;;;;;4895875;29;20127;-86
2023/11/12 00:33:42;;;;;;;2.10;1.40;;;;;;;;;;4895757;29;20040;-86
2023/11/12 00:36:08;;;;;;;3.40;0.80;;;;;;;;;;4895498;29;20132;-86
2023/11/12 00:38:34;;;;;;;1.70;1.00;;;;;;;;;;4892853;29;20029;-87
2023/11/12 00:41:00;;;;;;;0.98;0.98;;;;;;;;;;4896476;29;20044;-86
2023/11/12 00:43:30;;;;;;;1.33;0.82;;;;;;;;;;4890289;29;20029;-86
2023/11/12 00:46:00;;;;;;;1.13;1.00;;;8.30;78.50;;;;;;4894521;29;20024;-87
2023/11/12 00:48:26;;;;;;;6.05;1.25;;;;;;;;;;4890364;29;20032;-87
2023/11/12 00:50:52;;;;;;;0.82;0.82;;;;;;;;;;4892689;29;20408;-87
2023/11/12 00:53:18;;;;;;;1.38;0.90;;;;;;;;;;4891088;29;20502;-86
2023/11/12 00:55:44;;;;;;;4.15;0.98;;;;;;;;;;4895783;29;20108;-87
2023/11/12 00:58:10;;;;;;;1.02;0.60;;;;;;;;;;4895373;29;20298;-87
2023/11/12 01:00:37;;;;;;;1.75;0.90;;;8.20;80.20;;;;;;4894656;29;20091;-88
2023/11/12 01:03:03;;;;;;;0.70;0.70;;;;;;;;;;4895174;29;20581;-87
2023/11/12 01:05:29;;;;;;;1.15;1.15;;;;;;;;;;4894016;29;20036;-88
2023/11/12 01:07:55;;;;;;;4.20;1.05;;;;;;;;;;4895351;29;20029;-87
2023/11/12 01:10:21;;;;;;;0.98;0.65;;;;;;;;;;4895331;29;20077;-88
2023/11/12 01:12:47;;;;;;;2.20;0.77;;;;;;;;;;4894621;29;20415;-87
2023/11/12 01:15:15;;;;;;;2.25;0.85;;;;;;;;;;4896005;29;20128;-88
2023/11/12 01:17:41;;;;;;;0.88;0.88;;;;;;;;;;4895538;29;20442;-87
2023/11/12 01:20:10;;;;;;;1.65;0.93;;;;;;;;;;4894650;29;20041;-87
2023/11/12 01:22:36;;;;;;;2.25;0.82;;;;;;;;;;4892419;29;20032;-86
2023/11/12 01:25:02;;;;;;;0.73;0.73;;;;;;;;;;4894970;29;20043;-86
2023/11/12 01:27:28;;;;;;;0.77;0.77;;;;;;;;;;4894891;29;20037;-87
2023/11/12 01:29:54;;;;;;;2.45;0.80;;;;;;;;;;4895045;29;20141;-87
2023/11/12 01:32:20;;;;;;;0.60;0.60;;;;;;;;;;4890881;29;20052;-86
2023/11/12 01:34:46;;;;;;;1.88;0.82;;;;;;;;;;4887901;29;20498;-87
2023/11/12 01:37:12;;;;;;;1.27;0.63;;;;;;;;;;4894850;29;20100;-87
2023/11/12 01:39:38;;;;;;;2.70;1.02;;;;;;;;;;4894243;29;20102;-89
2023/11/12 01:42:11;;;;;;;1.20;0.40;;;7.60;97.00;;;;;;4894585;29;20577;-87
2023/11/12 01:44:37;;;;;;;0.82;0.65;;;;;;;;;;4895014;29;20032;-87
2023/11/12 01:47:04;;;;;;;4.72;1.35;;;7.80;91.10;;;;;;4894725;29;20631;-87
2023/11/12 01:49:30;;;;;;;1.55;0.75;;;;;;;;;;4894385;29;20041;-87
2023/11/12 01:51:57;;;;;;;1.65;0.90;;;;;;;;;;4894421;29;20036;-87
2023/11/12 01:54:24;;;;;;;1.02;0.82;;;7.70;90.90;;;;;;4894351;29;20067;-86
2023/11/12 01:56:55;;;;;;;1.08;0.73;;;;;;;;;;4886722;29;20033;-87
2023/11/12 01:59:21;;;;;;;2.47;0.80;;;;;;;;;;4894436;29;20051;-87
2023/11/12 02:01:50;;;;;;;0.63;0.63;;;7.60;92.10;;;;;;4894910;29;20092;-86
2023/11/12 02:04:17;;;;;;;0.93;0.70;;;7.60;92.40;;;;;;4894626;29;20071;-87
2023/11/12 02:06:43;;;;;;;0.82;0.57;;;;;;;;;;4894819;29;20106;-87
2023/11/12 02:09:09;;;;;;;0.40;0.40;;;;;;;;;;4894884;29;20062;-87
2023/11/12 02:11:37;;;;;;;0.60;0.60;;;7.90;91.50;;;;;;4893296;29;20067;-86
2023/11/12 02:14:03;;;;;;;0.93;0.70;;;;;;;;;;4894455;29;20037;-88
2023/11/12 02:16:29;;;;;;;0.52;0.52;;;;;;;;;;4894815;29;20037;-87
2023/11/12 02:18:55;;;;;;;0.32;0.32;;;;;;;;;;4893897;29;20490;-86
2023/11/12 02:21:25;;;;;;;2.15;0.55;;;7.90;99.00;;;;;;4894540;29;20037;-87
2023/11/12 02:23:51;;;;;;;1.25;0.55;;;;;;;;;;4882450;29;20033;-87
2023/11/12 02:26:17;;;;;;;0.63;0.40;;;;;;;;;;4894876;29;20025;-88
2023/11/12 02:28:43;;;;;;;2.42;0.50;;;;;;;;;;4894647;29;20032;-87
2023/11/12 02:31:09;;;;;;;3.42;0.95;;;;;;;;;;4892638;29;20095;-87
2023/11/12 02:33:35;;;;;;;0.68;0.68;;;;;;;;;;4893520;29;20044;-88
2023/11/12 02:36:03;;;;;;;0.77;0.77;;;;;;;;;;4894641;29;20055;-86
2023/11/12 02:38:29;;;;;;;0.45;0.45;;;;;;;;;;4893975;29;20045;-86
2023/11/12 02:40:56;;;;;;;1.10;0.75;;;;;;;;;;4892632;29;20040;-87
2023/11/12 02:43:24;;;;;;;0.67;0.57;;;;;;;;;;4894447;29;20064;-86
2023/11/12 02:45:50;;;;;;;0.60;0.45;;;;;;;;;;4894182;29;20047;-86
2023/11/12 02:48:16;;;;;;;2.20;0.60;;;;;;;;;;4893783;29;20021;-87
2023/11/12 02:50:43;;;;;;;0.50;0.50;;;;;;;;;;4894236;29;20407;-86
2023/11/12 02:53:10;;;;;;;0.95;0.60;;;;;;;;;;4893793;29;20040;-86
2023/11/12 02:55:37;;;;;;;0.45;0.45;;;;;;;;;;4888162;29;20511;-86
2023/11/12 02:58:03;;;;;;;1.85;0.73;;;;;;;;;;4891184;29;20451;-87
2023/11/12 03:00:29;;;;;;;0.47;0.47;;;;;;;;;;4893981;29;20039;-85
2023/11/12 03:03:00;;;;;;;9.00;0.77;;;8.00;93.70;;;;;;4896942;29;20024;-87
2023/11/12 03:05:26;;;;;;;0.80;0.63;;;;;;;;;;4897578;29;20096;-86
2023/11/12 03:07:52;;;;;;;1.52;0.70;;;;;;;;;;4897401;29;20088;-86
2023/11/12 03:10:18;;;;;;;4.47;0.73;;;;;;;;;;4896175;29;20032;-88
2023/11/12 03:12:45;;;;;;;1.13;0.60;;;;;;;;;;4896858;29;20037;-87
2023/11/12 03:15:11;;;;;;;0.75;0.60;;;;;;;;;;4897254;29;20515;-87
2023/11/12 03:17:38;;;;;;;0.85;0.68;;;7.70;98.00;;;;;;4897173;29;20145;-87
2023/11/12 03:20:05;;;;;;;0.40;0.40;;;7.70;99.90;;;;;;4897140;29;20052;-87
2023/11/12 03:22:34;;;;;;;2.33;0.90;;;7.60;98.90;;;;;;4897093;29;20016;-86
2023/11/12 03:25:01;;;;;;;0.50;0.50;;;;;;;;;;4895410;29;20405;-87
2023/11/12 03:27:27;;;;;;;0.75;0.50;;;;;;;;;;4890906;29;20029;-87
2023/11/12 03:29:53;;;;;;;0.50;0.50;;;;;;;;;;4895225;29;20054;-88
2023/11/12 03:32:21;;;;;;;0.50;0.50;;;;;;;;;;4897237;29;20028;-87
2023/11/12 03:34:53;;;;;;;0.55;0.40;;;7.50;97.40;;;;;;4896311;29;20032;-87
2023/11/12 03:37:22;;;;;;;0.65;0.57;;;7.80;97.70;;;;;;4897579;29;20039;-87
2023/11/12 03:39:48;;;;;;;0.60;0.60;;;;;;;;;;4896175;29;20418;-87
2023/11/12 03:42:18;;;;;;;0.40;0.40;;;8.10;97.80;;;;;;4896796;29;20033;-86
2023/11/12 03:44:46;;;;;;;2.00;0.65;;;8.20;97.00;;;;;;4896673;29;20021;-87
2023/11/12 03:47:12;;;;;;;;;;;;;;;;;;4896769;29;20041;-87
2023/11/12 03:49:41;;;;;;;0.63;0.63;;;8.50;96.30;;;;;;4893571;29;19921;-87
2023/11/12 03:52:07;;;;;;;1.75;0.75;;;;;;;;;;4887371;29;20036;-87
2023/11/12 03:54:34;;;;;;;0.60;0.60;;;;;;;;;;4896346;29;20028;-87
2023/11/12 03:57:00;;;;;;;0.77;0.50;;;;;;;;;;4895806;29;20509;-87
2023/11/12 03:59:26;;;;;;;3.13;0.60;;;;;;;;;;4896087;29;20020;-87
2023/11/12 04:01:52;;;;;;;0.47;0.43;;;;;;;;;;4896519;29;20442;-87
2023/11/12 04:04:18;;;;;;;1.13;0.70;;;;;;;;;;4896539;29;20446;-87
2023/11/12 04:06:44;;;;;;;1.08;0.50;;;;;;;;;;4887727;29;20039;-86
2023/11/12 04:09:10;;;;;;;0.50;0.50;;;;;;;;;;4896318;29;20036;-87
2023/11/12 04:11:38;;;;;;;1.35;0.70;;;;;;;;;;4895545;29;20517;-86
2023/11/12 04:14:04;;;;;;;0.40;0.40;;;;;;;;;;4896181;29;20096;-86
2023/11/12 04:16:30;;;;;;;0.60;0.60;;;;;;;;;;4896027;29;20104;-86
2023/11/12 04:18:56;;;;;;;0.70;0.57;;;;;;;;;;4894862;29;20052;-87
2023/11/12 04:21:22;;;;;;;2.38;0.50;;;;;;;;;;4895547;29;20846;-86
2023/11/12 04:23:49;;;;;;;0.47;0.47;;;;;;;;;;4894746;29;20116;-86
2023/11/12 04:26:15;;;;;;;0.50;0.50;;;8.20;99.50;;;;;;4896127;29;20032;-87
2023/11/12 04:28:41;;;;;;;0.50;0.50;;;;;;;;;;4896223;29;20025;-86
2023/11/12 04:31:08;;;;;;;0.50;0.50;;;;;;;;;;4895606;29;20296;-87
2023/11/12 04:33:34;;;;;;;1.00;1.00;;;;;;;;;;4896363;29;20112;-86
2023/11/12 04:36:01;;;;;;;1.58;0.93;;;;;;;;;;4895461;29;20116;-86
2023/11/12 04:38:27;;;;;;;1.08;0.50;;;8.40;99.90;;;;;;4894407;29;20035;-86
2023/11/12 04:40:53;;;;;;;0.75;0.43;;;;;;;;;;4894483;29;20139;-86
2023/11/12 04:43:19;;;;;;;2.13;0.80;;;;;;;;;;4894882;29;20118;-86
2023/11/12 04:45:45;;;;;;;0.52;0.52;;;;;;;;;;4892787;29;20112;-86
2023/11/12 04:48:12;;;;;;;0.40;0.40;;;9.10;98.50;;;;;;4896100;29;20072;-86
2023/11/12 04:50:38;;;;;;;5.50;0.50;;;;;;;;;;4894659;29;20559;-86
2023/11/12 04:53:05;;;;;;;0.52;0.52;;;9.30;98.00;;;;;;4895417;29;20076;-87
2023/11/12 04:55:31;;;;;;;0.50;0.50;;;;;;;;;;4895132;29;20087;-86
2023/11/12 04:57:57;;;;;;;0.98;0.63;;;;;;;;;;4893943;29;20494;-87
2023/11/12 05:00:23;;;;;;;0.50;0.50;;;;;;;;;;4895137;29;20119;-87
2023/11/12 05:02:49;;;;;;;0.50;0.50;;;;;;;;;;4894045;29;20494;-87
2023/11/12 05:05:16;;;;;;;0.50;0.50;;;;;;;;;;4893568;29;20029;-86
2023/11/12 05:07:43;;;;;;;0.30;0.30;;;;;;;;;;4895789;29;20055;-87
2023/11/12 05:10:11;;;;;;;0.30;0.30;;;9.60;99.90;;;;;;4893715;29;20027;-86
2023/11/12 05:12:37;;;;;;;6.82;0.52;;;;;;;;;;4893969;29;20185;-88
2023/11/12 05:15:03;;;;;;;0.50;0.50;;;;;;;;;;4894902;29;20036;-87
2023/11/12 05:17:29;;;;;;;0.40;0.40;;;;;;;;;;4895399;29;20468;-87
2023/11/12 05:19:55;;;;;;;1.15;0.47;;;;;;;;;;4894854;29;20141;-87
2023/11/12 05:22:21;;;;;;;0.30;0.30;;;;;;;;;;4895068;29;20060;-87
2023/11/12 05:24:51;;;;;;;0.52;0.50;;;;;;;;;;4894209;29;20021;-87
2023/11/12 05:27:17;;;;;;;3.22;0.50;;;;;;;;;;4894491;29;20032;-86
2023/11/12 05:29:43;;;;;;;0.47;0.47;;;;;;;;;;4894802;29;20112;-86
2023/11/12 05:32:09;;;;;;;0.82;0.60;;;;;;;;;;4895063;29;20431;-88
2023/11/12 05:34:35;;;;;;;2.70;0.55;;;;;;;;;;4894703;29;20035;-88
2023/11/12 05:37:01;;;;;;;3.42;0.70;;;;;;;;;;4894000;29;20029;-87
2023/11/12 05:39:27;;;;;;;1.20;0.90;;;;;;;;;;4894368;29;20056;-87
2023/11/12 05:41:53;;;;;;;0.45;0.45;;;;;;;;;;4894808;29;20075;-87
2023/11/12 05:44:19;;;;;;;0.85;0.50;;;;;;;;;;4894637;29;20053;-87
2023/11/12 05:46:45;;;;;;;0.95;0.60;;;;;;;;;;4895006;29;20084;-87
2023/11/12 05:49:11;;;;;;;0.52;0.40;;;;;;;;;;4894577;29;20032;-86
2023/11/12 05:51:37;;;;;;;0.40;0.40;;;;;;;;;;4894470;29;20443;-86
2023/11/12 05:54:03;;;;;;;0.40;0.40;;;;;;;;;;4894610;29;20036;-86
2023/11/12 05:56:29;;;;;;;1.30;0.75;;;9.60;99.90;;;;;;4890556;29;20029;-86
2023/11/12 05:58:55;;;;;;;0.32;0.32;;;;;;;;;;4894372;29;20033;-86
2023/11/12 06:01:21;;;;;;;0.57;0.50;;;;;;;;;;4894437;29;20509;-87
2023/11/12 06:03:47;;;;;;;0.57;0.40;;;;;;;;;;4882494;29;20099;-87
2023/11/12 06:06:14;;;;;;;0.55;0.40;;;;;;;;;;4893709;29;20084;-87
2023/11/12 06:08:40;;;;;;;0.73;0.40;;;;;;;;;;4894678;29;20044;-87
2023/11/12 06:11:06;;;;;;;1.02;0.60;;;;;;;;;;4894994;29;20067;-87
2023/11/12 06:13:32;;;;;;;0.68;0.65;;;;;;;;;;4894439;29;20025;-87
2023/11/12 06:15:58;;;;;;;7.15;0.73;;;;;;;;;;4894920;29;20040;-88
2023/11/12 06:18:24;;;;;;;0.55;0.50;;;;;;;;;;4894205;29;20099;-87
2023/11/12 06:20:50;;;;;;;1.17;1.00;;;;;;;;;;4894569;29;20458;-87
2023/11/12 06:23:16;;;;;;;0.50;0.50;;;;;;;;;;4894851;29;20028;-89
2023/11/12 06:25:42;;;;;;;1.60;0.52;;;;;;;;;;4895059;29;20115;-87
2023/11/12 06:28:09;;;;;;;0.88;0.73;;;;;;;;;;4894579;29;20108;-87
2023/11/12 06:30:34;;;;;;;2.33;0.65;;;9.60;99.90;;;;;;4894185;29;20522;-87
2023/11/12 06:33:00;;;;;;;0.93;0.88;;;9.90;99.90;;;;;;4892804;29;20024;-87
2023/11/12 06:35:26;;;;;;;0.52;0.52;;;;;;;;;;4896126;29;20032;-87
2023/11/12 06:37:52;;;;;;;0.47;0.47;;;;;;;;;;4897426;29;20035;-87
2023/11/12 06:40:18;;;;;;;0.63;0.63;;;;;;;;;;4898374;29;20041;-88
2023/11/12 06:42:44;;;;;;;0.70;0.70;;;;;;;;;;4897867;29;20496;-88
2023/11/12 06:45:10;;;;;;;6.10;0.88;;;;;;;;;;4897994;29;20040;-88
2023/11/12 06:47:37;;;;;;;2.92;0.60;;;;;;;;;;4896846;29;20111;-88
2023/11/12 06:50:03;;;;;;;0.60;0.60;;;9.90;99.90;;;;;;4896745;29;20036;-88
2023/11/12 06:52:30;;;;;;;1.35;0.57;;;;;;;;;;4898153;29;20116;-88
2023/11/12 06:54:58;;;;;;;1.08;0.73;;;;;;;;;;4896547;29;20091;-87
2023/11/12 06:57:25;;;;;;;1.23;1.05;;;;;;;;;;4896010;29;20107;-88
2023/11/12 06:59:51;;;;;;;1.00;0.85;;;;;;;;;;4898191;29;20039;-88
2023/11/12 07:02:17;;;;;;;0.77;0.63;;;;;;;;;;4897014;29;20037;-86
2023/11/12 07:04:43;;;;;;;1.27;0.68;;;;;;;;;;4897792;29;20028;-88
2023/11/12 07:07:09;;;;;;;0.60;0.57;;;;;;;;;;4897919;29;20519;-87
2023/11/12 07:09:35;;;;;;;0.88;0.50;;;;;;;;;;4897584;29;20111;-87
2023/11/12 07:12:01;;;;;;;1.13;0.70;;;;;;;;;;4896852;29;20485;-87
2023/11/12 07:14:27;;;;;;;2.85;0.63;;;;;;;;;;4897860;29;20036;-87
2023/11/12 07:16:53;;;;;;;8.30;0.93;;;;;;;;;;4897081;29;20036;-87
2023/11/12 07:19:19;;;;;;;2.15;1.05;;;;;;;;;;4897768;29;20021;-87
2023/11/12 07:21:45;;;;;;;1.70;0.93;;;;;;;;;;4897108;29;20490;-88
2023/11/12 07:24:11;;;;;;;1.15;0.60;;;;;;;;;;4897634;29;20028;-88
2023/11/12 07:26:37;;;;;;;2.28;0.85;;;;;;;;;;4897206;29;20028;-87
2023/11/12 07:29:03;;;;;;;4.90;0.90;;;;;;;;;;4895972;29;20031;-87
2023/11/12 07:31:29;;;;;;;1.63;0.73;;;;;;;;;;4897180;29;20128;-89
2023/11/12 07:33:55;;;;;;;0.60;0.60;;;;;;;;;;4897782;29;20668;-88
2023/11/12 07:36:21;;;;;;;1.13;0.95;;;;;;;;;;4896926;29;20020;-85
2023/11/12 07:38:47;;;;;;;1.63;0.93;;;;;;;;;;4897098;29;20099;-87
2023/11/12 07:41:14;;;;;;;2.72;0.60;;;;;;;;;;4896824;29;20107;-88
2023/11/12 07:43:40;;;;;;;0.90;0.70;;;;;;;;;;4897219;29;20025;-87
2023/11/12 07:46:06;;;;;;;2.15;1.00;;;;;;;;;;4890515;29;20033;-88
2023/11/12 07:48:33;;;;;;;1.48;0.77;;;;;;;;;;4890191;29;20016;-88
2023/11/12 07:50:59;;;;;;;0.68;0.68;;;;;;;;;;4897388;29;20127;-89
2023/11/12 07:53:28;;;;;;;6.68;1.00;;;11.30;99.90;;;;;;4897777;29;20115;-86
2023/11/12 07:55:54;;;;;;;2.33;1.13;;;;;;;;;;4885765;29;20411;-89
2023/11/12 07:58:20;;;;;;;8.02;2.20;;;;;;;;;;4896838;29;20061;-86
2023/11/12 08:00:46;;;;;;;8.88;2.95;;;;;;;;;;4895602;29;20577;-88
2023/11/12 08:03:12;;;;;;;15.57;5.72;;;;;;;;;;4894774;29;20041;-87
2023/11/12 08:05:40;;;;;;;2.65;1.80;;;;;;;;;;4895667;29;20394;-88
2023/11/12 08:08:07;;;;;;;1.85;1.45;;;;;;;;;;4886997;29;20172;-88
2023/11/12 08:10:37;;;;;;;2.25;1.05;;;;;;;;;;4882385;29;20069;-87
2023/11/12 08:13:03;;;;;;;2.33;1.02;;;;;;;;;;4878960;29;20040;-89
2023/11/12 08:15:29;;;;;;;2.13;1.55;;;;;;;;;;4892761;29;20131;-87
2023/11/12 08:17:55;;;;;;;6.40;1.13;;;;;;;;;;4884283;29;20057;-86
2023/11/12 08:20:21;;;;;;;2.30;1.25;;;;;;;;;;4895840;29;20127;-87
2023/11/12 08:22:47;;;;;;;4.45;2.17;;;;;;;;;;4895991;29;20024;-87
2023/11/12 08:25:13;;;;;;;5.45;1.60;;;;;;;;;;4896571;29;20051;-88
2023/11/12 08:27:39;;;;;;;4.45;1.80;;;;;;;;;;4895622;29;20104;-88
2023/11/12 08:30:05;;;;;;;6.70;3.17;;;;;;;;;;4895651;29;20056;-88
2023/11/12 08:32:31;;;;;;;19.52;5.75;;;;;;;;;;4895523;29;20493;-87
2023/11/12 08:34:58;;;;;;;7.78;3.15;;;;;;;;;;4894453;29;20060;-88
2023/11/12 08:37:27;;;;;;;11.88;1.63;;;;;;;;;;4895790;29;20517;-88
2023/11/12 08:39:53;;;;;;;5.10;1.40;;;;;;;;;;4895868;29;20066;-87
2023/11/12 08:42:19;;;;;;;8.32;2.60;;;;;;;;;;4890238;29;20514;-87
2023/11/12 08:44:45;;;;;;;13.43;5.53;;;;;;;;;;4895964;29;20029;-87
2023/11/12 08:47:11;;;;;;;19.95;8.57;;;;;;;;;;4895290;29;20565;-87
2023/11/12 08:49:37;;;;;;;8.98;3.13;;;;;;;;;;4895475;29;20099;-88
2023/11/12 08:52:03;;;;;;;8.75;3.25;;;;;;;;;;4895847;29;20036;-88
2023/11/12 08:54:29;;;;;;;6.88;3.08;;;;;;;;;;4895580;29;20084;-88
2023/11/12 08:56:55;;;;;;;8.18;2.85;;;;;;;;;;4895147;29;20061;-87
2023/11/12 08:59:22;;;;;;;6.68;3.28;;;;;;;;;;4894549;29;20394;-87
2023/11/12 09:01:48;;;;;;;5.80;2.08;;;;;;;;;;4894448;29;20052;-88
2023/11/12 09:04:14;;;;;;;4.65;1.70;;;;;;;;;;4895360;29;20044;-86
2023/11/12 09:06:40;;;;;;;2.08;1.58;;;;;;;;;;4895244;29;20028;-88
2023/11/12 09:09:08;;;;;;;1.85;1.15;;;;;;;;;;4894235;29;20056;-87
2023/11/12 09:11:34;;;;;;;6.38;1.20;;;;;;;;;;4894812;29;20044;-88
2023/11/12 09:14:03;;;;;;;9.68;1.70;;;;;;;;;;4895825;29;20029;-88
2023/11/12 09:16:30;;;;;;;8.77;1.77;;;;;;;;;;4894973;29;20043;-88
2023/11/12 09:18:56;;;;;;;5.67;1.30;;;;;;;;;;4895554;29;20020;-89
2023/11/12 09:21:23;;;;;;;12.07;1.90;;;;;;;;;;4894641;29;20304;-88
2023/11/12 09:23:49;;;;;;;2.20;1.42;;;;;;;;;;4894889;29;20028;-87
2023/11/12 09:26:22;;;;;;;7.68;1.27;;;12.90;95.80;;;;;;4894970;29;20036;-90
2023/11/12 09:28:49;;;;;;;8.30;1.42;;;;;;;;;;4894935;29;20088;-88
2023/11/12 09:31:16;;;;;;;9.25;1.60;;;;;;;;;;4892901;29;20124;-90
2023/11/12 09:33:42;;;;;;;11.73;2.15;;;;;;;;;;4892898;29;20104;-88
2023/11/12 09:36:09;;;;;;;4.88;1.60;;;;;;;;;;4885600;29;20613;-90
2023/11/12 09:38:38;;;;;;;8.75;1.90;;;18.20;78.60;;;;;;4886207;29;20116;-88
2023/11/12 09:41:05;;;;;;;6.13;1.83;;;;;;;;;;4885440;29;20387;-90
2023/11/12 09:43:31;;;;;;;5.32;1.88;;;;;;;;;;4885136;29;20059;-88
2023/11/12 09:45:57;;;;;;;3.92;1.00;;;19.90;56.10;;;;;;4885685;29;20035;-88
2023/11/12 09:48:35;;;;;;;5.68;1.00;;;18.90;62.40;;;;;;4887916;29;20044;-89
2023/11/12 09:51:03;;;;;;;3.10;0.93;;;;;;;;;;4893147;29;20762;-89
2023/11/12 09:53:30;;;;;;;3.03;0.80;;;17.50;64.50;;;;;;4894081;29;20028;-88
2023/11/12 09:55:56;;;;;;;2.75;1.08;;;;;;;;;;4893524;29;20059;-89
2023/11/12 09:58:22;;;;;;;6.28;1.25;;;;;;;;;;4892441;29;20032;-88
2023/11/12 10:00:48;;;;;;;9.73;1.30;;;;;;;;;;4881999;29;20243;-90
2023/11/12 10:03:14;;;;;;;4.72;0.95;;;;;;;;;;4894298;29;20076;-88
2023/11/12 10:05:40;;;;;;;5.32;0.75;;;;;;;;;;4893367;29;20257;-89
2023/11/12 10:08:06;;;;;;;3.13;1.38;;;;;;;;;;4888297;29;20024;-90
2023/11/12 10:10:33;;;;;;;3.80;2.00;;;;;;;;;;4895155;29;20520;-89
2023/11/12 10:12:59;;;;;;;6.88;1.85;;;;;;;;;;4890771;29;20033;-88
2023/11/12 10:15:43;;;;;;;2.78;1.70;;;14.50;75.70;;;;;;4893421;29;20112;-87
2023/11/12 10:18:10;;;;;;;11.07;1.42;;;14.20;91.90;;;;;;4897379;29;20028;-89
2023/11/12 10:20:39;;;;;;;6.93;1.15;;;14.00;79.60;;;;;;4890124;29;20178;-89
2023/11/12 10:23:06;;;;;;;9.13;2.30;;;;;;;;;;4894610;29;20069;-89
2023/11/12 10:25:42;;;;;;;8.27;2.28;;;13.90;89.40;;;;;;4890087;29;20157;-88
2023/11/12 10:28:11;;;;;;;3.10;1.67;;;13.60;89.30;;;;;;4887808;29;20032;-87
2023/11/12 10:30:41;;;;;;;1.35;1.15;;;13.50;84.60;;;;;;4891455;29;20357;-87
2023/11/12 10:33:19;;;;;;;3.08;1.88;;;13.40;85.70;;;;;;4895961;29;20153;-88
2023/11/12 10:35:46;;;;;;;10.02;1.67;;;;;;;;;;4893127;29;20402;-90
2023/11/12 10:38:17;;;;;;;2.50;1.45;;;;;;;;;;4896428;29;20581;-87
2023/11/12 10:41:05;;;;;;;9.65;2.25;;;13.30;88.60;;;;;;4896415;29;20058;-87
2023/11/12 10:43:32;;;;;;;3.80;1.50;;;13.40;89.10;;;;;;4897261;29;20084;-87
2023/11/12 10:46:01;;;;;;;4.10;2.13;;;13.50;89.80;;;;;;4897001;29;20040;-86
2023/11/12 10:48:31;;;;;;;4.47;1.63;;;13.50;89.60;;;;;;4895090;29;20075;-85
2023/11/12 10:51:00;;;;;;;5.15;1.35;;;13.50;89.60;;;;;;4898006;29;20029;-86
2023/11/12 10:53:30;;;;;;;3.00;1.85;;;13.60;90.40;;;;;;4893940;29;20029;-85
2023/11/12 10:55:59;;;;;;;6.05;1.70;;;13.90;89.20;;;;;;4889259;29;20028;-81
2023/11/12 10:58:26;;;;;;;5.15;1.58;;;;;;;;;;4892605;29;20036;-83
2023/11/12 11:01:03;;;;;;;5.63;1.17;;;14.30;95.20;;;;;;4902974;29;20125;-83
2023/11/12 11:03:33;;;;;;;;;;;14.20;86.00;;;;;;4894692;29;20032;-83
2023/11/12 11:06:04;;;;;;;12.05;4.38;;;14.00;87.50;;;;;;4894195;29;19967;-83
2023/11/12 11:08:31;;;;;;;6.07;2.50;;;14.00;87.00;;;;;;4894862;29;20033;-84
2023/11/12 11:11:05;;;;;;;5.05;1.85;;;13.80;90.90;;;;;;4894240;29;20032;-82
2023/11/12 11:13:32;;;;;;;8.93;1.60;;;13.90;87.10;;;;;;4901634;29;20029;-83
2023/11/12 11:15:59;;;;;;;;;;;14.00;87.40;;;;;;4903254;29;20055;-83
2023/11/12 11:18:33;;;;;;;2.97;1.65;;;;;;;;;;4899533;29;20006;-82
2023/11/12 11:23:36;;;;;;;;;;;14.30;83.60;;;;;;4903802;29;20025;-83
2023/11/12 11:26:27;;;;;;;4.25;1.27;;;15.00;74.20;;;;;;4906089;29;19918;-84
2023/11/12 11:29:10;;;;;;;4.05;1.52;;;15.40;71.70;;;;;;4904607;29;20045;-84
2023/11/12 11:31:38;;;;;;;3.88;1.27;;;15.60;69.30;;;;;;4904765;29;20518;-83
2023/11/12 11:34:05;;;;;;;;;;;15.60;69.40;;;;;;4905108;29;20115;-84
2023/11/12 11:36:31;;;;;;;3.65;2.08;;;;;;;;;;4905931;29;19911;-84
2023/11/12 11:39:02;;;;;;;5.93;2.25;;;16.10;84.60;;;;;;4904073;29;20120;-84
2023/11/12 11:41:34;;;;;;;3.88;2.70;;;17.10;72.70;;;;;;4904631;29;20048;-84
2023/11/12 11:44:38;;;;;;;2.33;2.00;;;16.90;81.10;;;;;;4903065;29;20021;-85
2023/11/12 11:47:14;;;;;;;7.00;2.58;;;17.20;64.10;;;;;;4887960;29;20033;-83
2023/11/12 11:49:58;;;;;;;6.22;2.50;;;17.30;64.60;;;;;;4902361;29;20112;-85
2023/11/12 11:52:25;;;;;;;6.60;1.27;;;17.20;63.60;;;;;;4906548;29;20029;-84
2023/11/12 11:55:02;;;;;;;13.15;2.72;;;17.00;64.20;;;;;;4895512;29;20036;-84
2023/11/12 11:57:29;;;;;;;10.23;1.58;;;;;;;;;;4901324;29;20033;-84
2023/11/12 11:59:58;;;;;;;7.25;1.73;;;16.60;65.70;;;;;;4897639;29;20487;-84
2023/11/12 12:02:25;;;;;;;3.92;1.77;;;16.40;66.30;;;;;;4901766;29;20109;-84
2023/11/12 12:04:55;;;;;;;5.03;1.88;;;16.20;65.80;;;;;;4900154;29;20468;-84
2023/11/12 12:07:25;;;;;;;5.38;1.38;;;16.00;66.80;;;;;;4900429;29;20067;-84
2023/11/12 12:09:54;;;;;;;5.93;1.80;;;16.00;82.20;;;;;;4894496;29;20085;-83
2023/11/12 12:12:21;;;;;;;3.78;1.48;;;;;;;;;;4892608;29;20040;-83
2023/11/12 12:14:48;;;;;;;1.85;1.50;;;;;;;;;;4891682;29;20036;-84
2023/11/12 12:17:14;;;;;;;8.40;1.90;;;;;;;;;;4896313;29;20036;-84
2023/11/12 12:19:40;;;;;;;5.88;1.55;;;;;;;;;;4892705;29;20025;-83
2023/11/12 12:22:06;;;;;;;6.75;1.00;;;;;;;;;;4896199;29;20402;-85
2023/11/12 12:24:33;;;;;;;2.53;1.50;;;;;;;;;;4890649;29;20100;-84
2023/11/12 12:27:03;;;;;;;3.65;0.98;;;17.20;78.00;;;;;;4893620;29;20111;-84
2023/11/12 12:29:29;;;;;;;2.38;1.10;;;;;;;;;;4895713;29;20045;-84
2023/11/12 12:31:56;;;;;;;2.97;1.25;;;17.10;77.50;;;;;;4898790;29;20112;-85
2023/11/12 12:34:24;;;;;;;8.05;1.10;;;;;;;;;;4900800;29;20048;-84
2023/11/12 12:36:53;;;;;;;12.57;1.80;;;;;;;;;;4895088;29;20045;-84
2023/11/12 12:39:19;;;;;;;12.30;1.60;;;;;;;;;;4902266;29;20029;-84
2023/11/12 12:41:45;;;;;;;4.43;2.75;;;;;;;;;;4902920;29;20036;-85
2023/11/12 12:44:23;;;;;;;10.55;1.95;;;17.30;59.70;;;;;;4903570;29;20039;-84
2023/11/12 12:46:51;;;;;;;6.13;1.77;;;17.30;57.80;;;;;;4902707;29;20097;-83
2023/11/12 12:49:39;;;;;;;4.90;1.40;;;;;;;;;;4902874;29;20032;-85
2023/11/12 12:52:22;;;;;;;4.90;1.85;;;17.10;59.90;;;;;;4903430;29;20494;-85
2023/11/12 12:54:48;;;;;;;3.08;1.40;;;;;;;;;;4897426;29;20448;-84
2023/11/12 12:57:14;;;;;;;11.50;2.05;;;;;;;;;;4889568;29;20113;-83
2023/11/12 12:59:40;;;;;;;4.80;1.70;;;;;;;;;;4901226;29;20032;-84
2023/11/12 13:02:09;;;;;;;8.13;1.88;;;;;;;;;;4901915;29;20391;-83
2023/11/12 13:04:35;;;;;;;4.72;1.98;;;;;;;;;;4904170;29;20052;-84
2023/11/12 13:07:06;;;;;;;2.60;0.90;;;;;;;;;;4903909;29;20031;-84
2023/11/12 13:09:32;;;;;;;3.03;1.50;;;17.10;58.70;;;;;;4897812;29;20028;-84
2023/11/12 13:11:58;;;;;;;5.43;1.00;;;;;;;;;;4901905;29;20029;-84
2023/11/12 13:14:25;;;;;;;2.03;0.95;;;17.50;58.20;;;;;;4903374;29;20024;-84
2023/11/12 13:16:51;;;;;;;3.15;1.17;;;;;;;;;;4904540;29;20036;-83
2023/11/12 13:19:17;;;;;;;6.60;1.20;;;;;;;;;;4901863;29;20033;-83
2023/11/12 13:21:44;;;;;;;4.30;1.38;;;17.30;57.40;;;;;;4897317;29;20099;-84
2023/11/12 13:24:11;;;;;;;7.88;2.58;;;17.30;56.70;;;;;;4886953;29;20049;-84
2023/11/12 13:26:37;;;;;;;6.60;1.50;;;17.20;57.40;;;;;;4896278;29;20085;-84
2023/11/12 13:29:07;;;;;;;4.80;1.80;;;;;;;;;;4895957;29;20103;-84
2023/11/12 13:31:33;;;;;;;4.82;1.63;;;;;;;;;;4894521;29;20482;-84
2023/11/12 13:33:59;;;;;;;8.45;1.95;;;;;;;;;;4894573;29;20484;-84
2023/11/12 13:36:26;;;;;;;11.13;2.35;;;;;;;;;;4894595;29;20029;-83
2023/11/12 13:38:52;;;;;;;4.55;1.50;;;;;;;;;;4894775;29;20116;-84
2023/11/12 13:41:22;;;;;;;2.75;0.85;;;16.90;58.30;;;;;;4882289;29;20451;-84
2023/11/12 13:43:48;;;;;;;3.90;1.30;;;;;;;;;;4894203;29;20093;-84
2023/11/12 13:46:15;;;;;;;3.70;1.13;;;16.90;58.40;;;;;;4894090;29;20128;-84
2023/11/12 13:48:42;;;;;;;3.17;0.93;;;;;;;;;;4894267;29;20435;-84
2023/11/12 13:51:09;;;;;;;3.30;0.90;;;;;;;;;;4894272;29;20040;-84
2023/11/12 13:53:35;;;;;;;7.38;2.10;;;;;;;;;;4894477;29;20047;-84
2023/11/12 13:56:02;;;;;;;4.63;1.60;;;;;;;;;;4894833;29;20036;-87
2023/11/12 13:58:27;;;;;;;6.18;2.03;;;;;;;;;;4893955;29;20418;-84
2023/11/12 14:00:54;;;;;;;1.20;0.90;;;;;;;;;;4894474;29;20045;-84
2023/11/12 14:03:21;;;;;;;1.27;0.68;;;;;;;;;;4894176;29;20033;-84
2023/11/12 14:05:47;;;;;;;;;;;16.60;59.40;;;;;;4894710;29;20028;-84
2023/11/12 14:08:13;;;;;;;2.92;1.73;;;;;;;;;;4894439;29;19911;-84
2023/11/12 14:10:39;;;;;;;6.28;1.98;;;;;;;;;;4894086;29;20510;-84
2023/11/12 14:13:05;;;;;;;5.95;1.10;;;;;;;;;;4893922;29;20043;-84
2023/11/12 14:15:33;;;;;;;1.92;1.13;;;;;;;;;;4894514;29;20048;-83
2023/11/12 14:17:59;;;;;;;2.17;0.93;;;;;;;;;;4894299;29;20045;-84